sensor_id;sensor_type;location;lat;lon;timestamp;pressure;altitude;pressure_sealevel;temperature;humidity
69630;BME280;56857;52.212;5.496;2024-03-25T00:01:20;100837.38;;;5.82;100.00
69630;BME280;56857;52.212;5.496;2024-03-25T00:03:45;100834.75;;;5.82;100.00
69630;BME280;56857;52.212;5.496;2024-03-25T00:06:10;100839.06;;;5.84;100.00
69630;BME280;56857;52.212;5.496;2024-03-25T00:08:36;100836.56;;;5.82;100.00
69630;BME280;56857;52.212;5.496;2024-03-25T00:11:02;100836.56;;;5.82;100.00
69630;BME280;56857;52.212;5.496;2024-03-25T00:13:27;100838.63;;;5.78;100.00
69630;BME280;56857;52.212;5.496;2024-03-25T00:15:52;100842.25;;;5.77;100.00
69630;BME280;56857;52.212;5.496;2024-03-25T00:18:18;100848.59;;;5.75;100.00
69630;BME280;56857;52.212;5.496;2024-03-25T00:20:43;100840.16;;;5.71;100.00
69630;BME280;56857;52.212;5.496;2024-03-25T00:23:08;100836.00;;;5.69;100.00
69630;BME280;56857;52.212;5.496;2024-03-25T00:25:34;100833.66;;;5.66;100.00
69630;BME280;56857;52.212;5.496;2024-03-25T00:27:59;100843.47;;;5.64;100.00
69630;BME280;56857;52.212;5.496;2024-03-25T00:30:24;100834.03;;;5.61;100.00
69630;BME280;56857;52.212;5.496;2024-03-25T00:32:49;100823.81;;;5.58;100.00
69630;BME280;56857;52.212;5.496;2024-03-25T00:35:15;100822.41;;;5.54;100.00
69630;BME280;56857;52.212;5.496;2024-03-25T00:37:40;100822.56;;;5.52;100.00
69630;BME280;56857;52.212;5.496;2024-03-25T00:40:06;100825.59;;;5.48;100.00
69630;BME280;56857;52.212;5.496;2024-03-25T00:42:31;100826.69;;;5.45;100.00
69630;BME280;56857;52.212;5.496;2024-03-25T00:44:57;100818.25;;;5.42;100.00
69630;BME280;56857;52.212;5.496;2024-03-25T00:47:22;100822.00;;;5.39;100.00
69630;BME280;56857;52.212;5.496;2024-03-25T00:49:47;100823.94;;;5.37;100.00
69630;BME280;56857;52.212;5.496;2024-03-25T00:52:13;100818.13;;;5.33;100.00
69630;BME280;56857;52.212;5.496;2024-03-25T00:54:38;100824.59;;;5.29;100.00
69630;BME280;56857;52.212;5.496;2024-03-25T00:57:04;100815.31;;;5.25;100.00
69630;BME280;56857;52.212;5.496;2024-03-25T00:59:29;100810.34;;;5.22;100.00
69630;BME280;56857;52.212;5.496;2024-03-25T01:01:54;100807.84;;;5.21;100.00
69630;BME280;56857;52.212;5.496;2024-03-25T01:04:20;100819.47;;;5.18;100.00
69630;BME280;56857;52.212;5.496;2024-03-25T01:06:45;100828.31;;;5.17;100.00
69630;BME280;56857;52.212;5.496;2024-03-25T01:09:10;100822.09;;;5.18;100.00
69630;BME280;56857;52.212;5.496;2024-03-25T01:11:35;100821.28;;;5.18;100.00
69630;BME280;56857;52.212;5.496;2024-03-25T01:14:01;100829.16;;;5.18;100.00
69630;BME280;56857;52.212;5.496;2024-03-25T01:16:26;100825.81;;;5.16;100.00
69630;BME280;56857;52.212;5.496;2024-03-25T01:18:51;100824.84;;;5.17;100.00
69630;BME280;56857;52.212;5.496;2024-03-25T01:21:17;100829.28;;;5.16;100.00
69630;BME280;56857;52.212;5.496;2024-03-25T01:23:42;100834.69;;;5.15;100.00
69630;BME280;56857;52.212;5.496;2024-03-25T01:26:07;100829.41;;;5.15;100.00
69630;BME280;56857;52.212;5.496;2024-03-25T01:28:33;100829.41;;;5.15;100.00
69630;BME280;56857;52.212;5.496;2024-03-25T01:30:58;100825.00;;;5.15;100.00
69630;BME280;56857;52.212;5.496;2024-03-25T01:33:23;100835.22;;;5.18;100.00
69630;BME280;56857;52.212;5.496;2024-03-25T01:35:49;100830.97;;;5.17;100.00
69630;BME280;56857;52.212;5.496;2024-03-25T01:38:14;100825.81;;;5.16;100.00
69630;BME280;56857;52.212;5.496;2024-03-25T01:40:39;100826.66;;;5.16;100.00
69630;BME280;56857;52.212;5.496;2024-03-25T01:43:05;100828.44;;;5.16;100.00
69630;BME280;56857;52.212;5.496;2024-03-25T01:45:33;100831.06;;;5.16;100.00
69630;BME280;56857;52.212;5.496;2024-03-25T01:48:01;100825.00;;;5.15;100.00
69630;BME280;56857;52.212;5.496;2024-03-25T01:50:27;100831.34;;;5.13;100.00
69630;BME280;56857;52.212;5.496;2024-03-25T01:52:53;100822.75;;;5.10;100.00
69630;BME280;56857;52.212;5.496;2024-03-25T01:55:21;100826.34;;;5.09;100.00
69630;BME280;56857;52.212;5.496;2024-03-25T01:57:49;100820.38;;;5.07;100.00
69630;BME280;56857;52.212;5.496;2024-03-25T02:00:15;100828.28;;;5.07;100.00
69630;BME280;56857;52.212;5.496;2024-03-25T02:02:41;100823.88;;;5.08;100.00
69630;BME280;56857;52.212;5.496;2024-03-25T02:05:06;100828.28;;;5.07;100.00
69630;BME280;56857;52.212;5.496;2024-03-25T02:07:32;100830.91;;;5.07;100.00
69630;BME280;56857;52.212;5.496;2024-03-25T02:09:59;100827.44;;;5.07;100.00
69630;BME280;56857;52.212;5.496;2024-03-25T02:12:26;100833.53;;;5.07;100.00
69630;BME280;56857;52.212;5.496;2024-03-25T02:14:51;100827.31;;;5.08;100.00
69630;BME280;56857;52.212;5.496;2024-03-25T02:17:16;100829.97;;;5.08;100.00
69630;BME280;56857;52.212;5.496;2024-03-25T02:19:42;100837.84;;;5.08;100.00
69630;BME280;56857;52.212;5.496;2024-03-25T02:22:07;100842.28;;;5.08;100.00
69630;BME280;56857;52.212;5.496;2024-03-25T02:24:33;100832.59;;;5.08;100.00
69630;BME280;56857;52.212;5.496;2024-03-25T02:26:58;100841.84;;;5.13;100.00
69630;BME280;56857;52.212;5.496;2024-03-25T02:29:33;100836.47;;;5.14;100.00
69630;BME280;56857;52.212;5.496;2024-03-25T02:31:58;100841.47;;;5.17;100.00
69630;BME280;56857;52.212;5.496;2024-03-25T02:34:23;100840.59;;;5.17;100.00
69630;BME280;56857;52.212;5.496;2024-03-25T02:36:49;100843.94;;;5.19;100.00
69630;BME280;56857;52.212;5.496;2024-03-25T02:39:14;100839.41;;;5.21;100.00
69630;BME280;56857;52.212;5.496;2024-03-25T02:41:40;100852.28;;;5.24;100.00
69630;BME280;56857;52.212;5.496;2024-03-25T02:44:05;100839.13;;;5.24;100.00
69630;BME280;56857;52.212;5.496;2024-03-25T02:46:31;100847.84;;;5.24;100.00
69630;BME280;56857;52.212;5.496;2024-03-25T02:48:57;100849.50;;;5.25;100.00
69630;BME280;56857;52.212;5.496;2024-03-25T02:51:22;100850.19;;;5.27;100.00
69630;BME280;56857;52.212;5.496;2024-03-25T02:53:47;100847.41;;;5.29;100.00
69630;BME280;56857;52.212;5.496;2024-03-25T02:56:12;100843.00;;;5.29;100.00
69630;BME280;56857;52.212;5.496;2024-03-25T02:58:38;100843.00;;;5.29;100.00
69630;BME280;56857;52.212;5.496;2024-03-25T03:01:03;100840.38;;;5.29;100.00
69630;BME280;56857;52.212;5.496;2024-03-25T03:03:29;100840.38;;;5.29;100.00
69630;BME280;56857;52.212;5.496;2024-03-25T03:05:54;100826.41;;;5.29;100.00
69630;BME280;56857;52.212;5.496;2024-03-25T03:08:19;100830.72;;;5.30;100.00
69630;BME280;56857;52.212;5.496;2024-03-25T03:10:45;100825.44;;;5.30;100.00
69630;BME280;56857;52.212;5.496;2024-03-25T03:13:10;100833.44;;;5.28;100.00
69630;BME280;56857;52.212;5.496;2024-03-25T03:15:35;100837.06;;;5.27;100.00
69630;BME280;56857;52.212;5.496;2024-03-25T03:18:01;100833.44;;;5.28;100.00
69630;BME280;56857;52.212;5.496;2024-03-25T03:20:26;100834.28;;;5.29;100.00
69630;BME280;56857;52.212;5.496;2024-03-25T03:22:51;100836.78;;;5.30;100.00
69630;BME280;56857;52.212;5.496;2024-03-25T03:25:17;100826.41;;;5.29;100.00
69630;BME280;56857;52.212;5.496;2024-03-25T03:27:42;100827.22;;;5.29;100.00
69630;BME280;56857;52.212;5.496;2024-03-25T03:30:07;100836.91;;;5.29;100.00
69630;BME280;56857;52.212;5.496;2024-03-25T03:32:33;100826.41;;;5.29;100.00
69630;BME280;56857;52.212;5.496;2024-03-25T03:34:58;100821.97;;;5.29;100.00
69630;BME280;56857;52.212;5.496;2024-03-25T03:37:23;100819.50;;;5.28;100.00
69630;BME280;56857;52.212;5.496;2024-03-25T03:39:49;100818.78;;;5.26;100.00
69630;BME280;56857;52.212;5.496;2024-03-25T03:42:14;100816.41;;;5.23;100.00
69630;BME280;56857;52.212;5.496;2024-03-25T03:44:39;100826.38;;;5.19;100.00
69630;BME280;56857;52.212;5.496;2024-03-25T03:47:05;100815.47;;;5.14;100.00
69630;BME280;56857;52.212;5.496;2024-03-25T03:49:30;100810.47;;;5.11;100.00
69630;BME280;56857;52.212;5.496;2024-03-25T03:51:55;100814.31;;;5.07;100.00
69630;BME280;56857;52.212;5.496;2024-03-25T03:54:20;100816.38;;;5.03;100.00
69630;BME280;56857;52.212;5.496;2024-03-25T03:56:46;100814.16;;;4.99;100.00
69630;BME280;56857;52.212;5.496;2024-03-25T03:59:11;100814.56;;;4.94;100.00
69630;BME280;56857;52.212;5.496;2024-03-25T04:01:36;100813.28;;;4.88;100.00
69630;BME280;56857;52.212;5.496;2024-03-25T04:04:02;100811.22;;;4.82;100.00
69630;BME280;56857;52.212;5.496;2024-03-25T04:06:27;100802.06;;;4.77;100.00
69630;BME280;56857;52.212;5.496;2024-03-25T04:08:52;100810.22;;;4.74;100.00
69630;BME280;56857;52.212;5.496;2024-03-25T04:11:18;100802.59;;;4.71;100.00
69630;BME280;56857;52.212;5.496;2024-03-25T04:13:43;100806.56;;;4.65;100.00
69630;BME280;56857;52.212;5.496;2024-03-25T04:16:08;100803.50;;;4.60;100.00
69630;BME280;56857;52.212;5.496;2024-03-25T04:18:34;100807.50;;;4.54;100.00
69630;BME280;56857;52.212;5.496;2024-03-25T04:20:59;100805.13;;;4.51;100.00
69630;BME280;56857;52.212;5.496;2024-03-25T04:23:25;100806.34;;;4.47;100.00
69630;BME280;56857;52.212;5.496;2024-03-25T04:25:51;100805.78;;;4.44;100.00
69630;BME280;56857;52.212;5.496;2024-03-25T04:28:16;100815.69;;;4.40;100.00
69630;BME280;56857;52.212;5.496;2024-03-25T04:30:42;100809.88;;;4.36;100.00
69630;BME280;56857;52.212;5.496;2024-03-25T04:33:07;100814.56;;;4.33;100.00
69630;BME280;56857;52.212;5.496;2024-03-25T04:35:32;100808.50;;;4.32;100.00
69630;BME280;56857;52.212;5.496;2024-03-25T04:37:57;100802.53;;;4.30;100.00
69630;BME280;56857;52.212;5.496;2024-03-25T04:40:23;100809.94;;;4.25;100.00
69630;BME280;56857;52.212;5.496;2024-03-25T04:42:48;100815.34;;;4.24;100.00
69630;BME280;56857;52.212;5.496;2024-03-25T04:45:14;100813.69;;;4.23;100.00
69630;BME280;56857;52.212;5.496;2024-03-25T04:47:40;100809.38;;;4.22;100.00
69630;BME280;56857;52.212;5.496;2024-03-25T04:50:06;100810.59;;;4.17;100.00
69630;BME280;56857;52.212;5.496;2024-03-25T04:52:31;100809.06;;;4.15;100.00
69630;BME280;56857;52.212;5.496;2024-03-25T04:54:57;100814.31;;;4.15;100.00
69630;BME280;56857;52.212;5.496;2024-03-25T04:57:22;100810.88;;;4.14;100.00
69630;BME280;56857;52.212;5.496;2024-03-25T04:59:47;100809.56;;;4.09;100.00
69630;BME280;56857;52.212;5.496;2024-03-25T05:02:12;100813.44;;;4.05;100.00
69630;BME280;56857;52.212;5.496;2024-03-25T05:04:38;100809.25;;;4.02;100.00
69630;BME280;56857;52.212;5.496;2024-03-25T05:07:03;100810.59;;;3.97;100.00
69630;BME280;56857;52.212;5.496;2024-03-25T05:09:28;100816.09;;;3.93;100.00
69630;BME280;56857;52.212;5.496;2024-03-25T05:11:54;100814.59;;;3.91;100.00
69630;BME280;56857;52.212;5.496;2024-03-25T05:14:19;100812.22;;;3.88;100.00
69630;BME280;56857;52.212;5.496;2024-03-25T05:16:44;100820.34;;;3.85;100.00
69630;BME280;56857;52.212;5.496;2024-03-25T05:19:10;100815.91;;;3.85;100.00
69630;BME280;56857;52.212;5.496;2024-03-25T05:21:35;100823.88;;;3.84;100.00
69630;BME280;56857;52.212;5.496;2024-03-25T05:24:00;100825.09;;;3.80;100.00
69630;BME280;56857;52.212;5.496;2024-03-25T05:26:26;100826.19;;;3.77;100.00
69630;BME280;56857;52.212;5.496;2024-03-25T05:28:55;100830.03;;;3.73;100.00
69630;BME280;56857;52.212;5.496;2024-03-25T05:31:20;100833.63;;;3.72;100.00
69630;BME280;56857;52.212;5.496;2024-03-25T05:33:46;100840.38;;;3.75;100.00
69630;BME280;56857;52.212;5.496;2024-03-25T05:36:11;100851.56;;;3.77;100.00
69630;BME280;56857;52.212;5.496;2024-03-25T05:38:36;100848.00;;;3.78;100.00
69630;BME280;56857;52.212;5.496;2024-03-25T05:41:02;100853.13;;;3.79;100.00
69630;BME280;56857;52.212;5.496;2024-03-25T05:43:27;100851.81;;;3.74;100.00
69630;BME280;56857;52.212;5.496;2024-03-25T05:45:56;100845.19;;;3.69;100.00
69630;BME280;56857;52.212;5.496;2024-03-25T05:48:24;100846.97;;;3.69;100.00
69630;BME280;56857;52.212;5.496;2024-03-25T05:51:03;100842.81;;;3.66;100.00
69630;BME280;56857;52.212;5.496;2024-03-25T05:53:28;100838.13;;;3.70;100.00
69630;BME280;56857;52.212;5.496;2024-03-25T05:55:54;100838.00;;;3.71;100.00
69630;BME280;56857;52.212;5.496;2024-03-25T05:58:20;100832.66;;;3.73;100.00
69630;BME280;56857;52.212;5.496;2024-03-25T06:00:49;100840.50;;;3.73;100.00
69630;BME280;56857;52.212;5.496;2024-03-25T06:03:15;100834.88;;;3.78;100.00
69630;BME280;56857;52.212;5.496;2024-03-25T06:05:40;100837.81;;;3.84;100.00
69630;BME280;56857;52.212;5.496;2024-03-25T06:08:07;100844.25;;;3.91;100.00
69630;BME280;56857;52.212;5.496;2024-03-25T06:10:37;100835.16;;;3.95;100.00
69630;BME280;56857;52.212;5.496;2024-03-25T06:13:02;100833.25;;;3.98;100.00
69630;BME280;56857;52.212;5.496;2024-03-25T06:15:27;100832.88;;;4.02;100.00
69630;BME280;56857;52.212;5.496;2024-03-25T06:17:53;100828.19;;;4.06;100.00
69630;BME280;56857;52.212;5.496;2024-03-25T06:20:18;100834.97;;;4.08;100.00
69630;BME280;56857;52.212;5.496;2024-03-25T06:22:43;100827.81;;;4.10;100.00
69630;BME280;56857;52.212;5.496;2024-03-25T06:25:09;100831.13;;;4.12;100.00
69630;BME280;56857;52.212;5.496;2024-03-25T06:27:34;100835.19;;;4.16;100.00
69630;BME280;56857;52.212;5.496;2024-03-25T06:29:59;100828.72;;;4.21;100.00
69630;BME280;56857;52.212;5.496;2024-03-25T06:32:25;100828.47;;;4.24;100.00
69630;BME280;56857;52.212;5.496;2024-03-25T06:34:50;100827.38;;;4.26;100.00
69630;BME280;56857;52.212;5.496;2024-03-25T06:37:15;100834.03;;;4.30;100.00
69630;BME280;56857;52.212;5.496;2024-03-25T06:39:41;100831.97;;;4.34;100.00
69630;BME280;56857;52.212;5.496;2024-03-25T06:42:06;100823.72;;;4.38;100.00
69630;BME280;56857;52.212;5.496;2024-03-25T06:44:31;100818.91;;;4.44;100.00
69630;BME280;56857;52.212;5.496;2024-03-25T06:46:57;100821.97;;;4.49;100.00
69630;BME280;56857;52.212;5.496;2024-03-25T06:49:22;100823.25;;;4.54;100.00
69630;BME280;56857;52.212;5.496;2024-03-25T06:51:47;100822.28;;;4.55;100.00
69630;BME280;56857;52.212;5.496;2024-03-25T06:54:12;100827.38;;;4.57;100.00
69630;BME280;56857;52.212;5.496;2024-03-25T06:56:38;100833.09;;;4.62;100.00
69630;BME280;56857;52.212;5.496;2024-03-25T06:59:03;100819.84;;;4.63;100.00
69630;BME280;56857;52.212;5.496;2024-03-25T07:01:28;100832.81;;;4.65;100.00
69630;BME280;56857;52.212;5.496;2024-03-25T07:03:54;100821.91;;;4.70;100.00
69630;BME280;56857;52.212;5.496;2024-03-25T07:06:19;100835.63;;;4.73;100.00
69630;BME280;56857;52.212;5.496;2024-03-25T07:08:44;100827.88;;;4.72;100.00
69630;BME280;56857;52.212;5.496;2024-03-25T07:11:10;100830.38;;;4.73;100.00
69630;BME280;56857;52.212;5.496;2024-03-25T07:13:35;100826.63;;;4.76;100.00
69630;BME280;56857;52.212;5.496;2024-03-25T07:16:00;100828.59;;;4.74;100.00
69630;BME280;56857;52.212;5.496;2024-03-25T07:18:26;100830.25;;;4.75;100.00
69630;BME280;56857;52.212;5.496;2024-03-25T07:20:51;100832.75;;;4.76;100.00
69630;BME280;56857;52.212;5.496;2024-03-25T07:23:16;100833.31;;;4.80;100.00
69630;BME280;56857;52.212;5.496;2024-03-25T07:25:42;100834.59;;;4.85;100.00
69630;BME280;56857;52.212;5.496;2024-03-25T07:28:07;100828.94;;;4.90;100.00
69630;BME280;56857;52.212;5.496;2024-03-25T07:30:32;100829.22;;;4.97;100.00
69630;BME280;56857;52.212;5.496;2024-03-25T07:32:58;100830.22;;;5.05;100.00
69630;BME280;56857;52.212;5.496;2024-03-25T07:35:24;100831.78;;;5.18;100.00
69630;BME280;56857;52.212;5.496;2024-03-25T07:37:51;100836.78;;;5.30;100.00
69630;BME280;56857;52.212;5.496;2024-03-25T07:40:21;100835.72;;;5.43;100.00
69630;BME280;56857;52.212;5.496;2024-03-25T07:42:47;100839.03;;;5.54;100.00
69630;BME280;56857;52.212;5.496;2024-03-25T07:45:13;100835.44;;;5.65;100.00
69630;BME280;56857;52.212;5.496;2024-03-25T07:47:38;100837.09;;;5.76;100.00
69630;BME280;56857;52.212;5.496;2024-03-25T07:50:04;100828.25;;;5.87;100.00
69630;BME280;56857;52.212;5.496;2024-03-25T07:52:29;100843.25;;;5.96;100.00
69630;BME280;56857;52.212;5.496;2024-03-25T07:54:55;100843.78;;;6.09;100.00
69630;BME280;56857;52.212;5.496;2024-03-25T07:57:20;100845.28;;;6.21;100.00
69630;BME280;56857;52.212;5.496;2024-03-25T07:59:46;100834.84;;;6.39;100.00
69630;BME280;56857;52.212;5.496;2024-03-25T08:02:11;100838.28;;;6.59;100.00
69630;BME280;56857;52.212;5.496;2024-03-25T08:04:37;100849.00;;;6.85;100.00
69630;BME280;56857;52.212;5.496;2024-03-25T08:07:02;100850.97;;;7.11;100.00
69630;BME280;56857;52.212;5.496;2024-03-25T08:09:27;100842.22;;;7.38;100.00
69630;BME280;56857;52.212;5.496;2024-03-25T08:11:53;100840.50;;;7.64;100.00
69630;BME280;56857;52.212;5.496;2024-03-25T08:14:18;100840.63;;;7.99;100.00
69630;BME280;56857;52.212;5.496;2024-03-25T08:16:43;100849.47;;;8.33;100.00
69630;BME280;56857;52.212;5.496;2024-03-25T08:19:08;100846.88;;;8.59;100.00
69630;BME280;56857;52.212;5.496;2024-03-25T08:21:34;100857.09;;;8.89;100.00
69630;BME280;56857;52.212;5.496;2024-03-25T08:23:59;100856.06;;;9.16;100.00
69630;BME280;56857;52.212;5.496;2024-03-25T08:26:24;100849.84;;;9.33;100.00
69630;BME280;56857;52.212;5.496;2024-03-25T08:28:49;100858.66;;;9.50;100.00
69630;BME280;56857;52.212;5.496;2024-03-25T08:31:15;100852.75;;;9.72;100.00
69630;BME280;56857;52.212;5.496;2024-03-25T08:33:40;100851.94;;;9.88;100.00
69630;BME280;56857;52.212;5.496;2024-03-25T08:36:06;100845.31;;;10.17;100.00
69630;BME280;56857;52.212;5.496;2024-03-25T08:38:31;100845.47;;;10.40;100.00
69630;BME280;56857;52.212;5.496;2024-03-25T08:40:56;100846.59;;;10.62;100.00
69630;BME280;56857;52.212;5.496;2024-03-25T08:43:21;100837.69;;;11.02;100.00
69630;BME280;56857;52.212;5.496;2024-03-25T08:45:47;100844.16;;;11.31;100.00
69630;BME280;56857;52.212;5.496;2024-03-25T08:48:12;100837.78;;;11.48;100.00
69630;BME280;56857;52.212;5.496;2024-03-25T08:50:37;100826.16;;;11.72;100.00
69630;BME280;56857;52.212;5.496;2024-03-25T08:53:03;100827.25;;;11.86;100.00
69630;BME280;56857;52.212;5.496;2024-03-25T08:55:29;100829.94;;;12.01;100.00
69630;BME280;56857;52.212;5.496;2024-03-25T08:57:54;100821.34;;;11.99;100.00
69630;BME280;56857;52.212;5.496;2024-03-25T09:00:20;100822.72;;;12.33;100.00
69630;BME280;56857;52.212;5.496;2024-03-25T09:02:45;100815.28;;;12.43;100.00
69630;BME280;56857;52.212;5.496;2024-03-25T09:05:10;100813.72;;;12.63;100.00
69630;BME280;56857;52.212;5.496;2024-03-25T09:07:36;100806.03;;;12.53;100.00
69630;BME280;56857;52.212;5.496;2024-03-25T09:10:02;100804.09;;;12.33;100.00
69630;BME280;56857;52.212;5.496;2024-03-25T09:12:27;100806.88;;;12.39;100.00
69630;BME280;56857;52.212;5.496;2024-03-25T09:14:52;100806.50;;;12.42;100.00
69630;BME280;56857;52.212;5.496;2024-03-25T09:17:18;100809.50;;;12.24;100.00
69630;BME280;56857;52.212;5.496;2024-03-25T09:19:43;100799.88;;;12.23;100.00
69630;BME280;56857;52.212;5.496;2024-03-25T09:22:08;100805.56;;;12.50;100.00
69630;BME280;56857;52.212;5.496;2024-03-25T09:24:33;100793.47;;;12.62;100.00
69630;BME280;56857;52.212;5.496;2024-03-25T09:26:58;100800.47;;;13.14;100.00
69630;BME280;56857;52.212;5.496;2024-03-25T09:29:24;100802.47;;;13.27;100.00
69630;BME280;56857;52.212;5.496;2024-03-25T09:31:49;100797.41;;;13.17;100.00
69630;BME280;56857;52.212;5.496;2024-03-25T09:34:14;100792.53;;;13.36;100.00
69630;BME280;56857;52.212;5.496;2024-03-25T09:36:39;100801.09;;;13.74;100.00
69630;BME280;56857;52.212;5.496;2024-03-25T09:39:05;100805.97;;;14.13;100.00
69630;BME280;56857;52.212;5.496;2024-03-25T09:41:30;100799.47;;;14.23;100.00
69630;BME280;56857;52.212;5.496;2024-03-25T09:43:56;100798.00;;;14.20;100.00
69630;BME280;56857;52.212;5.496;2024-03-25T09:46:22;100793.06;;;14.17;100.00
69630;BME280;56857;52.212;5.496;2024-03-25T09:48:48;100795.25;;;14.35;100.00
69630;BME280;56857;52.212;5.496;2024-03-25T09:51:14;100799.41;;;14.44;100.00
69630;BME280;56857;52.212;5.496;2024-03-25T09:53:40;100784.75;;;14.62;100.00
69630;BME280;56857;52.212;5.496;2024-03-25T09:56:05;100782.75;;;14.70;100.00
69630;BME280;56857;52.212;5.496;2024-03-25T09:58:31;100785.81;;;14.67;100.00
69630;BME280;56857;52.212;5.496;2024-03-25T10:00:58;100782.56;;;14.72;100.00
69630;BME280;56857;52.212;5.496;2024-03-25T10:03:23;100778.50;;;14.82;100.00
69630;BME280;56857;52.212;5.496;2024-03-25T10:05:49;100770.25;;;14.77;100.00
69630;BME280;56857;52.212;5.496;2024-03-25T10:08:20;100770.25;;;14.77;100.00
69630;BME280;56857;52.212;5.496;2024-03-25T10:10:45;100773.31;;;14.68;100.00
69630;BME280;56857;52.212;5.496;2024-03-25T10:13:10;100761.38;;;14.29;100.00
69630;BME280;56857;52.212;5.496;2024-03-25T10:15:36;100761.56;;;13.99;100.00
69630;BME280;56857;52.212;5.496;2024-03-25T10:18:01;100755.56;;;13.90;100.00
69630;BME280;56857;52.212;5.496;2024-03-25T10:20:26;100760.00;;;13.83;100.00
69630;BME280;56857;52.212;5.496;2024-03-25T10:22:52;100755.38;;;13.71;100.00
69630;BME280;56857;52.212;5.496;2024-03-25T10:25:27;100756.91;;;13.80;100.00
69630;BME280;56857;52.212;5.496;2024-03-25T10:27:59;100751.72;;;13.72;100.00
69630;BME280;56857;52.212;5.496;2024-03-25T10:30:26;100746.53;;;13.63;100.00
69630;BME280;56857;52.212;5.496;2024-03-25T10:33:02;100746.72;;;13.62;100.00
69630;BME280;56857;52.212;5.496;2024-03-25T10:35:30;100738.59;;;13.70;100.00
69630;BME280;56857;52.212;5.496;2024-03-25T10:38:02;100735.34;;;13.75;100.00
69630;BME280;56857;52.212;5.496;2024-03-25T10:40:32;100736.41;;;13.80;100.00
69630;BME280;56857;52.212;5.496;2024-03-25T10:45:31;100724.28;;;14.06;100.00
69630;BME280;56857;52.212;5.496;2024-03-25T10:47:57;100733.75;;;14.08;100.00
69630;BME280;56857;52.212;5.496;2024-03-25T10:50:29;100730.00;;;14.03;100.00
69630;BME280;56857;52.212;5.496;2024-03-25T10:52:54;100722.47;;;14.06;100.00
69630;BME280;56857;52.212;5.496;2024-03-25T10:55:22;100720.38;;;14.02;100.00
69630;BME280;56857;52.212;5.496;2024-03-25T10:57:48;100718.31;;;13.97;100.00
69630;BME280;56857;52.212;5.496;2024-03-25T11:00:14;100717.22;;;13.91;100.00
69630;BME280;56857;52.212;5.496;2024-03-25T11:02:42;100716.25;;;13.99;100.00
69630;BME280;56857;52.212;5.496;2024-03-25T11:05:09;100706.28;;;14.08;100.00
69630;BME280;56857;52.212;5.496;2024-03-25T11:07:34;100702.16;;;14.05;100.00
69630;BME280;56857;52.212;5.496;2024-03-25T11:10:07;100704.34;;;13.95;100.00
69630;BME280;56857;52.212;5.496;2024-03-25T11:12:38;100698.72;;;13.83;100.00
69630;BME280;56857;52.212;5.496;2024-03-25T11:15:05;100704.34;;;13.67;100.00
69630;BME280;56857;52.212;5.496;2024-03-25T11:17:31;100700.94;;;13.52;100.00
69630;BME280;56857;52.212;5.496;2024-03-25T11:20:11;100706.03;;;13.47;100.00
69630;BME280;56857;52.212;5.496;2024-03-25T11:22:47;100693.72;;;13.45;100.00
69630;BME280;56857;52.212;5.496;2024-03-25T11:25:13;100692.44;;;13.41;100.00
69630;BME280;56857;52.212;5.496;2024-03-25T11:27:38;100686.38;;;13.26;100.00
69630;BME280;56857;52.212;5.496;2024-03-25T11:30:04;100686.28;;;13.19;100.00
69630;BME280;56857;52.212;5.496;2024-03-25T11:32:30;100678.81;;;13.08;100.00
69630;BME280;56857;52.212;5.496;2024-03-25T11:34:55;100679.03;;;13.28;100.00
69630;BME280;56857;52.212;5.496;2024-03-25T11:37:20;100675.97;;;13.53;100.00
69630;BME280;56857;52.212;5.496;2024-03-25T11:39:46;100672.25;;;13.75;100.00
69630;BME280;56857;52.212;5.496;2024-03-25T11:42:12;100670.16;;;14.05;100.00
69630;BME280;56857;52.212;5.496;2024-03-25T11:44:38;100670.41;;;14.10;100.00
69630;BME280;56857;52.212;5.496;2024-03-25T11:47:04;100673.66;;;14.06;100.00
69630;BME280;56857;52.212;5.496;2024-03-25T11:49:29;100660.78;;;14.09;100.00
69630;BME280;56857;52.212;5.496;2024-03-25T11:51:55;100660.88;;;13.95;100.00
69630;BME280;56857;52.212;5.496;2024-03-25T11:54:20;100654.09;;;13.92;100.00
69630;BME280;56857;52.212;5.496;2024-03-25T11:56:46;100652.00;;;13.81;100.00
69630;BME280;56857;52.212;5.496;2024-03-25T11:59:12;100643.88;;;13.67;100.00
69630;BME280;56857;52.212;5.496;2024-03-25T12:01:38;100645.84;;;13.87;100.00
69630;BME280;56857;52.212;5.496;2024-03-25T12:04:16;100634.75;;;14.18;100.00
69630;BME280;56857;52.212;5.496;2024-03-25T12:06:42;100627.84;;;14.30;100.00
69630;BME280;56857;52.212;5.496;2024-03-25T12:09:07;100629.09;;;14.34;100.00
69630;BME280;56857;52.212;5.496;2024-03-25T12:11:33;100621.19;;;14.54;100.00
69630;BME280;56857;52.212;5.496;2024-03-25T12:13:59;100611.34;;;14.62;100.00
69630;BME280;56857;52.212;5.496;2024-03-25T12:16:25;100612.56;;;14.59;100.00
69630;BME280;56857;52.212;5.496;2024-03-25T12:18:51;100610.56;;;14.68;100.00
69630;BME280;56857;52.212;5.496;2024-03-25T12:21:17;100621.63;;;14.71;100.00
69630;BME280;56857;52.212;5.496;2024-03-25T12:23:43;100614.28;;;14.87;100.00
69630;BME280;56857;52.212;5.496;2024-03-25T12:26:08;100609.97;;;14.86;100.00
69630;BME280;56857;52.212;5.496;2024-03-25T12:28:34;100603.59;;;14.87;100.00
69630;BME280;56857;52.212;5.496;2024-03-25T12:30:59;100600.34;;;14.91;100.00
69630;BME280;56857;52.212;5.496;2024-03-25T12:33:24;100589.22;;;14.88;100.00
69630;BME280;56857;52.212;5.496;2024-03-25T12:35:51;100579.81;;;14.85;100.00
69630;BME280;56857;52.212;5.496;2024-03-25T12:38:30;100591.94;;;14.94;100.00
69630;BME280;56857;52.212;5.496;2024-03-25T12:41:10;100578.38;;;15.02;100.00
69630;BME280;56857;52.212;5.496;2024-03-25T12:43:41;100582.06;;;14.95;100.00